Time;durP1;ratioP1;P1;durP2;ratioP2;P2;SDS_P1;SDS_P2;PMS_P1;PMS_P2;Temp;Humidity;BMP_temperature;BMP_pressure;BME280_temperature;BME280_humidity;BME280_pressure;Samples;Min_cycle;Max_cycle;Signal;HPM_P1;HPM_P2
2022/07/28 00:01:25;;;;;;;2.95;1.87;;;;;;;21.43;53.68;98617.84;4484681;32;20104;-70
2022/07/28 00:03:53;;;;;;;1.98;1.77;;;;;;;21.48;53.39;98613.72;4484738;31;20085;-70
2022/07/28 00:06:20;;;;;;;2.03;1.55;;;;;;;21.50;53.57;98607.19;4484854;31;20503;-70
2022/07/28 00:08:47;;;;;;;2.28;1.90;;;;;;;21.48;53.42;98606.53;4484840;31;20163;-70
2022/07/28 00:11:15;;;;;;;12.68;2.12;;;;;;;21.52;53.41;98606.97;4484676;32;20440;-70
2022/07/28 00:13:42;;;;;;;2.03;1.70;;;;;;;21.52;53.35;98614.97;4484750;31;20093;-70
2022/07/28 00:16:09;;;;;;;2.28;1.85;;;;;;;21.52;53.52;98620.31;4484763;31;20118;-70
2022/07/28 00:18:37;;;;;;;2.60;1.80;;;;;;;21.53;53.50;98622.75;4484610;32;20154;-70
2022/07/28 00:21:04;;;;;;;2.37;1.67;;;;;;;21.53;53.72;98624.59;4484597;31;20084;-70
2022/07/28 00:23:31;;;;;;;3.37;1.67;;;;;;;21.47;53.93;98623.56;4484515;31;20553;-70
2022/07/28 00:26:07;;;;;;;2.35;1.60;;;;;;;21.41;54.19;98619.09;4483102;32;20088;-70
2022/07/28 00:28:35;;;;;;;2.62;1.87;;;;;;;21.39;54.43;98613.97;4484689;31;20119;-70
2022/07/28 00:31:03;;;;;;;2.17;1.70;;;;;;;21.38;54.54;98622.19;4483261;32;20489;-70
2022/07/28 00:33:33;;;;;;;2.22;1.73;;;;;;;21.29;54.78;98618.91;4484493;31;20104;-70
2022/07/28 00:36:01;;;;;;;2.22;1.90;;;;;;;21.29;54.62;98610.94;4484278;32;20098;-70
2022/07/28 00:38:28;;;;;;;4.68;2.15;;;;;;;21.28;54.55;98609.28;4484223;31;20089;-70
2022/07/28 00:41:10;;;;;;;7.30;2.55;;;;;;;21.34;54.15;98605.78;4484272;31;20128;-70
2022/07/28 00:43:46;;;;;;;2.70;2.12;;;;;;;21.39;53.75;98608.66;4484179;32;20080;-70
2022/07/28 00:46:17;;;;;;;4.00;2.20;;;;;;;21.42;53.53;98605.56;4484241;32;20108;-70
2022/07/28 00:48:48;;;;;;;3.03;2.03;;;;;;;21.45;53.33;98598.97;4483509;32;20171;-70
2022/07/28 00:51:17;;;;;;;4.35;1.98;;;;;;;21.59;53.20;98600.59;4486253;31;20105;-70
2022/07/28 00:53:44;;;;;;;4.00;1.92;;;;;;;21.60;52.88;98596.91;4485904;31;20871;-70
2022/07/28 00:56:12;;;;;;;4.35;2.33;;;;;;;21.53;53.08;98595.25;4486141;31;20438;-70
2022/07/28 00:58:40;;;;;;;4.72;1.95;;;;;;;21.57;52.93;98591.16;4486123;31;20093;-70
2022/07/28 01:01:10;;;;;;;2.60;1.87;;;;;;;21.54;53.13;98595.06;4486037;31;20544;-70
2022/07/28 01:03:39;;;;;;;4.20;2.28;;;;;;;21.54;53.28;98596.91;4486101;31;20385;-70
2022/07/28 01:06:10;;;;;;;2.42;2.12;;;;;;;21.54;53.45;98594.25;4486164;31;20448;-70
2022/07/28 01:08:48;;;;;;;2.08;1.77;;;;;;;21.54;53.58;98595.06;4484735;32;20088;-70
2022/07/28 01:11:27;;;;;;;3.90;2.12;;;;;;;21.49;53.76;98588.72;4486043;32;20446;-70
2022/07/28 01:14:34;;;;;;;2.03;1.70;;;;;;;21.38;54.01;98585.69;4486282;31;20130;-70
2022/07/28 01:17:27;;;;;;;3.30;2.20;;;;;;;21.34;54.23;98588.97;4408923;32;20117;-70
2022/07/28 01:20:09;;;;;;;3.08;2.50;;;;;;;21.27;54.58;98591.66;4421589;32;20122;-70
2022/07/28 01:22:41;;;;;;;2.97;2.22;;;;;;;21.20;54.78;98596.22;4408848;32;21270;-70
2022/07/28 01:25:20;;;;;;;4.43;2.40;;;;;;;21.21;54.86;98596.00;4421313;32;20085;-70
2022/07/28 01:27:48;;;;;;;4.72;2.45;;;;;;;21.16;54.98;98595.00;4417869;32;111568;-70
2022/07/28 01:30:40;;;;;;;3.17;2.22;;;;;;;21.16;55.26;98606.44;4421681;32;20091;-70
2022/07/28 01:33:18;;;;;;;5.10;2.17;;;;;;;21.01;56.10;98600.56;4421538;32;20163;-70
2022/07/28 01:35:55;;;;;;;2.28;2.00;;;;;;;20.81;57.72;98604.06;4408852;32;20924;-70
2022/07/28 01:38:23;;;;;;;3.17;2.03;;;;;;;20.73;58.52;98614.97;4421321;32;20175;-70
2022/07/28 01:40:51;;;;;;;4.55;2.25;;;;;;;20.51;59.52;98617.78;4408789;32;20397;-70
2022/07/28 01:43:22;;;;;;;4.22;2.10;;;;;;;20.35;60.22;98616.38;4421140;32;20165;-70
2022/07/28 01:45:54;;;;;;;4.65;2.17;;;;;;;20.16;61.85;98622.50;4409174;32;20141;-70
2022/07/28 01:48:23;;;;;;;3.40;1.90;;;;;;;20.15;62.07;98618.19;4421159;32;20534;-70
2022/07/28 01:50:53;;;;;;;2.70;2.30;;;;;;;20.16;62.14;98611.84;4408540;32;20102;-70
2022/07/28 01:53:22;;;;;;;5.37;1.92;;;;;;;20.06;62.98;98622.91;4426237;32;20161;-70
2022/07/28 01:55:51;;;;;;;4.78;2.30;;;;;;;19.99;62.91;98614.87;4484333;32;20165;-70
2022/07/28 01:58:21;;;;;;;5.07;2.28;;;;;;;19.93;62.21;98615.69;4484348;32;20156;-70
2022/07/28 02:00:49;;;;;;;2.70;1.83;;;;;;;19.92;62.82;98613.25;4483807;32;20166;-70
2022/07/28 02:03:18;;;;;;;5.30;2.42;;;;;;;19.85;63.23;98614.03;4484300;32;20116;-70
2022/07/28 02:05:49;;;;;;;6.32;2.40;;;;;;;19.76;63.61;98607.25;4477181;32;20501;-70
2022/07/28 02:08:17;;;;;;;3.05;2.12;;;;;;;19.67;63.65;98601.28;4468628;32;20092;-70
2022/07/28 02:11:38;;;;;;;2.40;1.85;;;;;;;19.67;63.49;98597.81;4468629;32;20136;-70
2022/07/28 02:13:36;;;;;;;2.10;1.90;;;;;;;19.64;63.57;98593.72;4468638;32;20097;-70
2022/07/28 02:16:07;;;;;;;3.85;2.50;;;;;;;19.59;64.24;98601.47;4470019;32;20449;-70
2022/07/28 02:18:36;;;;;;;2.60;2.20;;;;;;;19.55;64.49;98599.41;4470012;32;20137;-70
2022/07/28 02:21:05;;;;;;;5.03;2.53;;;;;;;19.62;63.95;98610.88;4469824;32;20101;-70
2022/07/28 02:23:34;;;;;;;3.97;2.37;;;;;;;19.51;64.28;98604.28;4468265;32;20092;-70
2022/07/28 02:26:04;;;;;;;5.15;2.03;;;;;;;19.49;64.27;98601.03;4468534;32;20405;-70
2022/07/28 02:28:32;;;;;;;3.75;2.17;;;;;;;19.35;64.97;98600.16;4468356;32;20093;-70
2022/07/28 02:31:02;;;;;;;3.92;2.53;;;;;;;19.06;65.63;98603.88;4468653;32;20439;-70
2022/07/28 02:33:32;;;;;;;5.50;2.42;;;;;;;18.95;65.94;98600.75;4468276;32;20096;-70
2022/07/28 02:36:30;;;;;;;2.60;2.08;;;;;;;18.93;65.83;98613.41;4468743;32;20105;-70
2022/07/28 02:39:01;;;;;;;4.75;2.65;;;;;;;18.86;66.03;98604.59;4468570;32;20410;-70
2022/07/28 02:41:31;;;;;;;3.75;2.35;;;;;;;18.89;67.21;98606.84;4468805;32;20565;-70
2022/07/28 02:44:10;;;;;;;4.03;2.40;;;;;;;18.88;67.25;98610.53;4468224;32;20599;-70
2022/07/28 02:46:43;;;;;;;2.95;2.12;;;;;;;18.86;67.41;98615.19;4468518;32;20093;-70
2022/07/28 02:49:37;;;;;;;6.45;2.40;;;;;;;18.70;66.91;98618.12;4468379;32;20096;-70
2022/07/28 02:52:09;;;;;;;3.72;2.50;;;;;;;18.63;66.94;98608.28;4470026;32;20112;-70
2022/07/28 02:54:37;;;;;;;4.03;2.37;;;;;;;18.70;66.66;98612.81;4467968;32;20165;-70
2022/07/28 02:57:05;;;;;;;3.95;2.40;;;;;;;18.76;66.22;98615.53;4469828;32;20061;-70
2022/07/28 02:59:34;;;;;;;2.80;2.30;;;;;;;18.92;66.26;98614.41;4469439;32;20158;-70
2022/07/28 03:02:01;;;;;;;2.67;2.00;;;;;;;18.88;65.45;98613.19;4483907;32;20131;-70
2022/07/28 03:07:15;;;;;;;2.83;2.15;;;;;;;19.04;65.05;98611.25;4469675;32;20560;-70
2022/07/28 03:09:45;;;;;;;2.70;2.20;;;;;;;19.08;64.92;98620.47;4468269;32;20089;-70
2022/07/28 03:12:12;;;;;;;3.20;2.35;;;;;;;19.10;64.72;98629.03;4468411;32;20080;-70
2022/07/28 03:14:40;;;;;;;2.70;1.90;;;;;;;19.11;64.82;98626.19;4469640;32;20084;-70
2022/07/28 03:17:08;;;;;;;4.82;2.40;;;;;;;19.17;64.55;98635.22;4469919;32;20123;-70
2022/07/28 03:19:35;;;;;;;3.97;2.22;;;;;;;19.23;64.48;98634.44;4469330;32;20112;-70
2022/07/28 03:22:03;;;;;;;4.43;2.45;;;;;;;19.23;64.83;98639.75;4469645;32;20119;-70
2022/07/28 03:24:51;;;;;;;3.05;2.15;;;;;;;19.13;65.52;98639.25;4469093;32;20507;-70
2022/07/28 03:27:34;;;;;;;2.97;1.90;;;;;;;18.95;65.37;98643.22;4467595;32;20566;-70
2022/07/28 03:30:03;;;;;;;4.13;2.07;;;;;;;18.71;66.15;98643.66;4468141;32;20130;-70
2022/07/28 03:32:33;;;;;;;4.18;2.37;;;;;;;18.74;66.07;98648.56;4469464;32;20454;-70
2022/07/28 03:35:02;;;;;;;5.68;2.33;;;;;;;18.87;65.60;98643.41;4467871;32;20092;-70
2022/07/28 03:37:38;;;;;;;5.25;2.42;;;;;;;18.97;65.13;98638.56;4469369;32;20592;-70
2022/07/28 03:40:08;;;;;;;2.87;2.17;;;;;;;19.17;64.77;98648.50;4468288;32;20084;-70
2022/07/28 03:42:36;;;;;;;4.95;2.45;;;;;;;19.37;63.34;98650.44;4467970;32;20089;-70
2022/07/28 03:45:04;;;;;;;4.22;2.60;;;;;;;19.54;63.03;98650.91;4467930;32;20104;-69
2022/07/28 03:47:31;;;;;;;3.62;2.03;;;;;;;19.67;62.35;98654.44;4468029;32;20101;-70
2022/07/28 03:49:58;;;;;;;6.03;2.40;;;;;;;19.80;62.04;98659.03;4467771;32;20611;-70
2022/07/28 03:52:26;;;;;;;2.80;2.50;;;;;;;19.95;61.46;98653.53;4469115;32;20157;-70
2022/07/28 03:54:53;;;;;;;2.95;2.40;;;;;;;20.06;61.51;98652.16;4468856;32;20109;-70
2022/07/28 03:57:21;;;;;;;4.07;2.42;;;;;;;20.15;62.05;98658.91;4467896;32;20092;-70
2022/07/28 03:59:48;;;;;;;5.22;2.47;;;;;;;20.21;62.48;98659.94;4470302;32;20088;-70
2022/07/28 04:02:16;;;;;;;4.37;2.62;;;;;;;20.21;63.02;98666.09;4484806;32;20128;-70
2022/07/28 04:04:43;;;;;;;4.45;2.20;;;;;;;20.12;62.32;98666.47;4484625;31;20118;-70
2022/07/28 04:07:12;;;;;;;5.43;2.15;;;;;;;20.13;61.53;98670.75;4484786;32;20084;-70
2022/07/28 04:09:39;;;;;;;3.80;2.10;;;;;;;20.23;60.99;98668.53;4484715;31;20089;-70
2022/07/28 04:12:07;;;;;;;4.35;2.12;;;;;;;20.30;60.77;98666.72;4484661;32;20097;-70
2022/07/28 04:14:34;;;;;;;2.92;2.42;;;;;;;20.44;60.71;98674.69;4483231;32;20123;-70
2022/07/28 04:17:01;;;;;;;2.95;2.50;;;;;;;20.52;60.58;98663.88;4484663;32;20093;-70
2022/07/28 04:19:28;;;;;;;6.28;2.53;;;;;;;20.67;60.06;98672.50;4484626;31;20110;-70
2022/07/28 04:21:55;;;;;;;3.90;2.22;;;;;;;20.80;59.68;98669.00;4484905;31;20439;-70
2022/07/28 04:24:23;;;;;;;3.60;2.00;;;;;;;20.96;59.35;98673.09;4483514;32;20119;-70
2022/07/28 04:26:50;;;;;;;4.12;2.40;;;;;;;21.08;60.85;98676.75;4484711;32;20565;-70
2022/07/28 04:29:19;;;;;;;4.15;2.30;;;;;;;21.12;59.45;98673.66;4484259;31;20524;-70
2022/07/28 04:31:53;;;;;;;4.53;2.25;;;;;;;21.21;59.22;98670.59;4484506;31;20197;-70
2022/07/28 04:34:20;;;;;;;3.08;2.47;;;;;;;21.31;58.87;98675.47;4482436;32;20076;-70
2022/07/28 04:36:49;;;;;;;4.03;2.55;;;;;;;21.38;58.79;98673.63;4483822;31;20516;-70
2022/07/28 04:39:17;;;;;;;6.50;2.37;;;;;;;21.46;58.66;98675.22;4481967;31;20092;-70
2022/07/28 04:41:44;;;;;;;3.78;2.45;;;;;;;21.57;58.58;98676.44;4481925;31;20088;-70
2022/07/28 04:44:11;;;;;;;3.67;2.45;;;;;;;21.65;58.15;98678.91;4484174;31;20391;-70
2022/07/28 04:46:39;;;;;;;6.97;2.92;;;;;;;21.62;57.91;98679.31;4481707;32;20160;-70
2022/07/28 04:49:06;;;;;;;6.30;3.42;;;;;;;21.80;57.48;98683.94;4478580;31;20189;-70
2022/07/28 04:51:34;;;;;;;4.85;2.85;;;;;;;21.94;57.02;98682.87;4480068;31;20101;-70
2022/07/28 04:54:02;;;;;;;10.10;3.25;;;;;;;22.10;56.17;98680.72;4482360;32;20161;-70
2022/07/28 04:56:29;;;;;;;7.18;2.67;;;;;;;22.17;55.88;98681.50;4483139;31;20110;-70
2022/07/28 04:58:57;;;;;;;2.28;2.00;;;;;;;22.24;55.21;98678.78;4482835;31;20084;-70
2022/07/28 05:01:27;;;;;;;3.05;2.28;;;;;;;22.31;55.60;98676.94;4479227;32;20165;-70
2022/07/28 05:03:54;;;;;;;5.30;2.70;;;;;;;22.35;54.95;98679.97;4477344;32;20124;-70
2022/07/28 05:06:21;;;;;;;4.12;2.42;;;;;;;22.44;55.47;98690.19;4480144;32;20088;-70
2022/07/28 05:08:49;;;;;;;4.47;2.42;;;;;;;22.64;55.39;98687.38;4482880;31;20096;-70
2022/07/28 05:11:16;;;;;;;2.95;2.30;;;;;;;22.83;55.15;98690.09;4478083;32;20101;-70
2022/07/28 05:13:43;;;;;;;4.60;2.42;;;;;;;22.89;55.58;98685.72;4478139;31;20135;-70
2022/07/28 05:16:11;;;;;;;3.50;2.08;;;;;;;22.96;54.91;98694.50;4479172;32;20112;-70
2022/07/28 05:18:38;;;;;;;4.37;2.40;;;;;;;23.14;54.76;98697.25;4480651;31;20091;-70
2022/07/28 05:21:05;;;;;;;5.97;2.97;;;;;;;23.21;55.38;98692.66;4478631;32;20092;-70
2022/07/28 05:23:32;;;;;;;5.72;2.90;;;;;;;23.18;55.68;98693.09;4476507;32;20123;-70
2022/07/28 05:25:59;;;;;;;5.15;3.12;;;;;;;23.30;55.45;98700.38;4479673;32;20088;-70
2022/07/28 05:28:27;;;;;;;5.62;2.80;;;;;;;23.25;56.54;98706.37;4473168;31;20104;-70
2022/07/28 05:30:54;;;;;;;4.62;2.70;;;;;;;22.86;58.43;98705.66;4479785;31;20097;-70
2022/07/28 05:33:22;;;;;;;4.22;2.95;;;;;;;22.83;59.31;98714.97;4481419;31;20426;-70
2022/07/28 05:35:52;;;;;;;5.80;2.92;;;;;;;22.78;59.27;98714.78;4480510;31;20504;-70
2022/07/28 05:38:20;;;;;;;8.93;3.35;;;;;;;22.90;59.34;98709.56;4476079;31;20107;-70
2022/07/28 05:40:48;;;;;;;3.37;2.90;;;;;;;22.67;59.69;98715.50;4484189;31;20089;-70
2022/07/28 05:43:15;;;;;;;3.65;2.87;;;;;;;22.61;60.81;98714.50;4481320;31;20539;-70
2022/07/28 05:45:43;;;;;;;3.60;2.90;;;;;;;22.70;60.83;98717.72;4484664;32;20096;-70
2022/07/28 05:48:11;;;;;;;5.85;2.90;;;;;;;22.79;60.70;98716.41;4485427;31;20499;-70
2022/07/28 05:50:38;;;;;;;4.05;2.37;;;;;;;22.84;60.82;98713.09;4485592;31;20157;-70
2022/07/28 05:53:05;;;;;;;6.07;3.10;;;;;;;22.93;60.94;98729.69;4485388;32;20120;-70
2022/07/28 05:55:33;;;;;;;4.28;3.10;;;;;;;23.00;60.36;98723.25;4483472;31;20092;-70
2022/07/28 05:58:02;;;;;;;6.43;3.15;;;;;;;22.99;60.79;98726.13;4482124;31;20147;-70
2022/07/28 06:00:32;;;;;;;5.12;3.22;;;;;;;23.09;60.77;98736.31;4478676;32;20112;-70
2022/07/28 06:03:02;;;;;;;5.30;3.55;;;;;;;23.09;61.12;98728.28;4482206;31;20126;-70
2022/07/28 06:05:30;;;;;;;3.95;3.55;;;;;;;23.08;61.29;98732.81;4480231;31;20100;-70
2022/07/28 06:07:58;;;;;;;4.00;3.60;;;;;;;23.08;61.19;98735.50;4484272;31;20575;-70
2022/07/28 06:10:57;;;;;;;5.10;3.47;;;;;;;23.12;61.27;98736.72;4484808;31;20128;-70
2022/07/28 06:13:14;;;;;;;5.30;3.37;;;;;;;23.08;61.56;98746.19;4482141;32;20088;-70
2022/07/28 06:15:43;;;;;;;6.57;3.40;;;;;;;23.25;60.50;98740.31;4472030;32;20096;-70
2022/07/28 06:18:10;;;;;;;3.83;3.28;;;;;;;23.31;60.01;98736.75;4480116;32;20407;-70
2022/07/28 06:20:37;;;;;;;6.75;3.10;;;;;;;23.37;59.90;98743.91;4485296;32;20600;-70
2022/07/28 06:23:05;;;;;;;5.12;2.92;;;;;;;23.45;58.72;98745.47;4483959;32;20101;-70
2022/07/28 06:25:32;;;;;;;5.18;3.10;;;;;;;23.48;57.55;98751.19;4479573;32;20499;-70
2022/07/28 06:28:03;;;;;;;4.28;3.10;;;;;;;23.82;56.76;98745.47;4482342;31;20112;-70
2022/07/28 06:30:31;;;;;;;6.62;2.97;;;;;;;24.02;55.53;98753.28;4484481;31;20104;-70
2022/07/28 06:32:58;;;;;;;8.05;3.17;;;;;;;24.30;55.01;98757.25;4482407;31;20462;-70
2022/07/28 06:35:25;;;;;;;4.57;3.00;;;;;;;24.45;52.31;98765.69;4483013;31;20097;-70
2022/07/28 06:37:53;;;;;;;5.35;3.30;;;;;;;24.52;49.84;98758.37;4482529;31;20147;-70
2022/07/28 06:40:21;;;;;;;3.10;2.80;;;;;;;24.41;50.32;98759.16;4481841;32;20109;-70
2022/07/28 06:42:48;;;;;;;4.57;3.22;;;;;;;24.53;49.76;98756.53;4485371;31;20097;-70
2022/07/28 06:45:17;;;;;;;4.70;3.45;;;;;;;24.51;49.20;98761.28;4481648;31;20441;-70
2022/07/28 06:47:51;;;;;;;9.25;3.37;;;;;;;24.66;49.48;98766.25;4481195;32;20122;-70
2022/07/28 06:50:19;;;;;;;4.60;3.55;;;;;;;24.78;49.11;98764.41;4485346;32;20096;-70
2022/07/28 06:52:54;;;;;;;3.60;3.30;;;;;;;25.01;48.58;98773.53;4477618;31;20088;-70
2022/07/28 06:55:21;;;;;;;3.90;3.22;;;;;;;25.01;49.69;98773.53;4482639;32;20096;-70
2022/07/28 06:57:48;;;;;;;6.75;3.22;;;;;;;25.17;47.61;98774.72;4484042;31;20126;-70
2022/07/28 07:00:16;;;;;;;5.65;3.53;;;;;;;25.37;46.97;98777.91;4483503;31;20173;-70
2022/07/28 07:02:43;;;;;;;6.32;3.83;;;;;;;25.70;47.42;98770.31;4484632;31;20149;-70
2022/07/28 07:05:11;;;;;;;5.68;3.03;;;;;;;25.88;45.52;98772.84;4482524;32;20656;-70
2022/07/28 07:07:38;;;;;;;5.50;3.60;;;;;;;25.59;46.75;98769.28;4483248;31;20156;-70
2022/07/28 07:10:10;;;;;;;6.28;3.35;;;;;;;25.83;46.89;98767.38;4483297;32;20127;-70
2022/07/28 07:12:37;;;;;;;3.62;3.12;;;;;;;26.13;46.94;98761.00;4480754;31;20096;-70
2022/07/28 07:15:06;;;;;;;5.47;3.42;;;;;;;26.17;46.20;98765.66;4478831;32;20100;-70
2022/07/28 07:17:33;;;;;;;8.20;3.70;;;;;;;26.45;45.43;98771.25;4484387;31;20100;-70
2022/07/28 07:20:00;;;;;;;4.25;3.00;;;;;;;26.19;46.11;98773.47;4482519;32;20421;-70
2022/07/28 07:22:27;;;;;;;13.50;3.78;;;;;;;26.52;45.07;98771.94;4481102;32;20136;-70
2022/07/28 07:24:55;;;;;;;4.70;3.22;;;;;;;26.65;44.94;98777.00;4482332;32;20084;-70
2022/07/28 07:27:23;;;;;;;6.65;4.20;;;;;;;26.71;45.17;98776.06;4481637;32;20092;-70
2022/07/28 07:29:51;;;;;;;7.35;3.40;;;;;;;26.38;44.63;98782.97;4482068;32;20449;-70
2022/07/28 07:32:18;;;;;;;10.90;3.62;;;;;;;26.46;45.30;98776.38;4483446;31;20162;-70
2022/07/28 07:34:45;;;;;;;7.70;3.33;;;;;;;26.19;45.23;98770.78;4482705;31;20168;-70
2022/07/28 07:37:13;;;;;;;7.50;3.45;;;;;;;26.15;46.05;98773.13;4481720;32;20100;-70
2022/07/28 07:39:41;;;;;;;5.47;4.00;;;;;;;26.30;45.43;98775.31;4480165;32;20104;-70
2022/07/28 07:42:08;;;;;;;7.05;3.70;;;;;;;26.19;45.56;98768.94;4480913;31;20105;-70
2022/07/28 07:44:35;;;;;;;6.53;3.60;;;;;;;26.24;45.09;98770.91;4482179;31;20101;-70
2022/07/28 07:47:03;;;;;;;5.45;3.50;;;;;;;26.59;44.70;98769.06;4481205;32;20088;-70
2022/07/28 07:49:30;;;;;;;5.28;3.20;;;;;;;26.56;44.02;98770.41;4477261;32;20105;-70
2022/07/28 07:52:13;;;;;;;7.03;3.80;;;;;;;26.55;44.26;98771.44;4480608;32;20123;-70
2022/07/28 07:54:40;;;;;;;9.00;3.37;;;;;;;26.70;43.83;98765.56;4480910;31;20092;-70
2022/07/28 07:57:08;;;;;;;7.30;3.50;;;;;;;26.67;43.63;98769.53;4483349;31;20108;-70
2022/07/28 07:59:36;;;;;;;7.60;3.67;;;;;;;26.86;43.34;98772.00;4472418;31;20128;-70
2022/07/28 08:02:03;;;;;;;4.28;3.20;;;;;;;26.51;43.90;98773.81;4482195;31;20089;-70
2022/07/28 08:04:31;;;;;;;5.82;3.80;;;;;;;26.65;43.72;98777.00;4478962;31;20176;-70
2022/07/28 08:07:05;;;;;;;4.30;3.22;;;;;;;26.92;43.31;98769.16;4482831;31;20068;-70
2022/07/28 08:09:33;;;;;;;8.10;3.70;;;;;;;27.01;41.76;98772.25;4482698;31;20092;-70
2022/07/28 08:12:00;;;;;;;6.53;3.33;;;;;;;27.19;41.57;98770.38;4483372;32;20194;-70
2022/07/28 08:14:27;;;;;;;7.22;3.62;;;;;;;27.62;41.35;98760.78;4481120;32;20174;-70
2022/07/28 08:16:57;;;;;;;8.95;4.40;;;;;;;27.69;39.96;98760.59;4479275;32;20097;-70
2022/07/28 08:19:24;;;;;;;18.85;4.55;;;;;;;27.83;40.15;98763.72;4483634;31;20104;-70
2022/07/28 08:21:51;;;;;;;7.37;3.35;;;;;;;27.79;39.67;98768.81;4483906;31;20108;-70
2022/07/28 08:24:19;;;;;;;5.97;3.17;;;;;;;27.46;39.38;98770.53;4480498;32;20096;-70
2022/07/28 08:27:01;;;;;;;4.57;3.53;;;;;;;27.49;40.29;98772.72;4480804;31;20076;-70
2022/07/28 08:29:28;;;;;;;9.23;3.40;;;;;;;27.69;40.27;98761.44;4482461;32;20176;-70
2022/07/28 08:31:55;;;;;;;5.18;3.42;;;;;;;27.85;40.33;98765.13;4481912;31;20592;-70
2022/07/28 08:34:24;;;;;;;7.07;3.40;;;;;;;28.19;39.61;98766.87;4479580;32;20115;-70
2022/07/28 08:37:01;;;;;;;6.10;3.65;;;;;;;28.34;39.77;98769.72;4475348;32;20154;-70
2022/07/28 08:39:30;;;;;;;9.00;3.95;;;;;;;28.20;38.69;98769.31;4478611;32;20061;-70
2022/07/28 08:42:28;;;;;;;6.68;3.67;;;;;;;28.11;39.51;98777.03;4483828;31;20171;-70
2022/07/28 08:45:04;;;;;;;184.00;15.55;;;;;;;28.38;39.41;98770.88;4475802;32;20100;-70
2022/07/28 08:47:33;;;;;;;24.20;3.92;;;;;;;28.34;38.77;98767.03;4481707;32;20088;-70
2022/07/28 08:50:23;;;;;;;8.20;3.90;;;;;;;27.99;39.79;98768.28;4479271;32;20167;-70
2022/07/28 08:52:51;;;;;;;7.60;3.45;;;;;;;28.11;39.18;98763.56;4479095;32;20576;-70
2022/07/28 08:55:23;;;;;;;5.90;3.60;;;;;;;27.64;39.91;98760.53;4476323;31;20135;-70
2022/07/28 08:57:59;;;;;;;5.75;3.30;;;;;;;27.74;39.14;98766.87;4479289;31;20092;-70
2022/07/28 09:00:27;;;;;;;7.90;3.25;;;;;;;28.03;38.13;98758.63;4476138;31;20646;-70
2022/07/28 09:02:54;;;;;;;6.90;3.30;;;;;;;28.22;38.33;98756.44;4475422;32;20104;-70
2022/07/28 09:05:22;;;;;;;5.28;3.47;;;;;;;28.57;38.57;98765.09;4478384;31;20122;-70
2022/07/28 09:07:51;;;;;;;11.68;3.30;;;;;;;28.55;38.18;98765.34;4478047;32;20112;-70
2022/07/28 09:10:21;;;;;;;18.40;4.43;;;;;;;28.83;38.81;98758.91;4480861;32;20115;-70
2022/07/28 09:12:48;;;;;;;5.75;3.05;;;;;;;29.06;37.83;98758.81;4477482;31;20126;-70
2022/07/28 09:15:15;;;;;;;5.28;3.28;;;;;;;29.28;36.73;98761.41;4479368;31;20096;-70
2022/07/28 09:17:42;;;;;;;57.78;6.30;;;;;;;29.30;36.58;98760.09;4481691;31;20595;-70
2022/07/28 09:20:10;;;;;;;75.82;7.37;;;;;;;29.46;38.16;98769.06;4480626;31;20880;-70
2022/07/28 09:23:00;;;;;;;4.75;3.30;;;;;;;29.56;37.22;98763.75;4479210;32;20521;-70
2022/07/28 09:25:28;;;;;;;7.78;3.55;;;;;;;29.10;36.26;98758.03;4470097;32;20111;-69
2022/07/28 09:28:05;;;;;;;3.87;3.10;;;;;;;29.02;36.80;98761.19;4479438;32;20096;-70
2022/07/28 09:30:34;;;;;;;3.92;3.20;;;;;;;29.47;37.01;98751.81;4474853;32;20096;-70
2022/07/28 09:33:20;;;;;;;8.35;3.75;;;;;;;29.11;35.73;98754.25;4480527;32;20131;-70
2022/07/28 09:36:13;;;;;;;3.80;3.40;;;;;;;29.13;36.47;98749.44;4480836;31;20108;-70
2022/07/28 09:38:40;;;;;;;10.52;3.33;;;;;;;29.15;37.14;98738.38;4480696;31;20133;-70
2022/07/28 09:41:07;;;;;;;5.93;3.42;;;;;;;29.44;35.79;98749.63;4478095;32;20157;-70
2022/07/28 09:43:36;;;;;;;3.55;3.20;;;;;;;29.64;35.97;98748.12;4482321;31;20390;-70
2022/07/28 09:46:09;;;;;;;4.93;3.62;;;;;;;29.58;35.43;98738.38;4482267;31;20243;-70
2022/07/28 09:48:56;;;;;;;;;;;;;;;29.56;35.75;98739.44;4480899;32;20084;-70
2022/07/28 09:51:27;;;;;;;6.47;3.65;;;;;;;29.47;36.09;98745.63;4481550;32;19992;-70
2022/07/28 09:54:24;;;;;;;4.82;3.78;;;;;;;29.53;36.18;98744.56;4481837;31;20119;-70
2022/07/28 09:56:51;;;;;;;7.93;3.95;;;;;;;29.84;36.41;98731.22;4428342;32;20098;-70
2022/07/28 09:59:20;;;;;;;10.07;3.80;;;;;;;30.02;34.45;98738.03;4415681;32;20090;-70
2022/07/28 10:01:59;;;;;;;5.55;3.47;;;;;;;30.27;34.69;98734.59;4431568;32;20570;-70
2022/07/28 10:04:30;;;;;;;15.45;4.75;;;;;;;30.57;35.20;98739.25;4429151;32;20106;-70
2022/07/28 10:07:08;;;;;;;5.53;3.50;;;;;;;30.66;33.69;98730.59;4429742;32;20093;-70
2022/07/28 10:09:37;;;;;;;7.37;3.55;;;;;;;30.71;34.08;98722.50;4424848;32;20181;-70
2022/07/28 10:12:20;;;;;;;6.00;3.70;;;;;;;31.03;32.90;98724.91;4429672;32;20179;-70
2022/07/28 10:14:52;;;;;;;6.25;3.40;;;;;;;31.35;33.13;98722.97;4430976;32;20334;-70
2022/07/28 10:17:22;;;;;;;7.33;4.00;;;;;;;31.79;32.93;98719.56;4429550;32;20139;-72
2022/07/28 10:19:53;;;;;;;5.82;3.53;;;;;;;32.07;31.48;98723.50;4424732;32;20128;-72
2022/07/28 10:22:22;;;;;;;5.18;3.10;;;;;;;31.97;32.25;98716.22;4426414;32;20129;-71
2022/07/28 10:24:51;;;;;;;8.73;3.92;;;;;;;32.25;30.76;98719.38;4430143;32;20156;-69
2022/07/28 10:27:28;;;;;;;8.98;3.20;;;;;;;32.09;30.81;98715.09;4427719;32;20101;-71
2022/07/28 10:29:57;;;;;;;7.50;3.97;;;;;;;32.15;31.43;98717.50;4430520;32;20299;-71
2022/07/28 10:32:28;;;;;;;4.93;3.53;;;;;;;31.77;32.28;98711.72;4436505;32;20101;-72
2022/07/28 10:35:10;;;;;;;3.95;3.40;;;;;;;32.06;31.12;98712.94;4480237;32;20091;-72
2022/07/28 10:37:44;;;;;;;5.25;3.40;;;;;;;32.34;31.31;98725.81;4484690;31;20077;-71
2022/07/28 10:40:12;;;;;;;5.90;3.50;;;;;;;32.39;30.60;98716.81;4484640;31;20358;-70
2022/07/28 10:42:39;;;;;;;6.85;3.00;;;;;;;32.43;30.45;98711.63;4483730;31;20123;-72
2022/07/28 10:45:09;;;;;;;4.90;3.80;;;;;;;32.48;30.19;98719.75;4483381;32;20123;-72
2022/07/28 10:47:37;;;;;;;7.75;3.17;;;;;;;32.72;29.44;98711.72;4479772;32;20143;-72
2022/07/28 10:50:05;;;;;;;10.02;3.80;;;;;;;32.89;29.64;98703.94;4483754;31;20092;-71
2022/07/28 10:52:32;;;;;;;4.78;3.33;;;;;;;33.30;29.63;98708.19;4483721;31;20096;-72
2022/07/28 10:55:51;;;;;;;10.18;3.92;;;;;;;32.35;30.98;98708.44;4482032;32;20118;-73
2022/07/28 10:58:18;;;;;;;5.37;3.45;;;;;;;32.84;29.09;98711.31;4484047;31;20096;-73
2022/07/28 11:00:52;;;;;;;5.37;3.30;;;;;;;31.91;30.32;98701.09;4484219;31;20092;-72
2022/07/28 11:03:38;;;;;;;4.47;3.40;;;;;;;31.74;30.86;98698.75;4484810;31;20141;-72
2022/07/28 11:06:38;;;;;;;4.03;3.60;;;;;;;32.46;31.32;98708.34;4484628;31;20586;-72
2022/07/28 11:09:14;;;;;;;5.28;3.45;;;;;;;32.20;30.40;98694.97;4484999;31;20373;-72
2022/07/28 11:11:57;;;;;;;5.53;3.40;;;;;;;31.36;32.25;98692.91;4485212;32;20141;-71
2022/07/28 11:14:24;;;;;;;5.30;3.25;;;;;;;31.62;31.54;98693.66;4483918;32;20135;-71
2022/07/28 11:16:59;;;;;;;3.37;2.90;;;;;;;32.06;30.63;98693.97;4484816;31;20484;-72
2022/07/28 11:19:46;;;;;;;20.60;3.67;;;;;;;32.72;29.72;98687.31;4484831;31;20187;-71
2022/07/28 11:22:34;;;;;;;4.35;3.17;;;;;;;32.77;29.60;98689.16;4420384;32;20159;-72
2022/07/28 11:25:01;;;;;;;4.40;3.10;;;;;;;33.35;29.28;98691.03;4419342;32;20495;-71
2022/07/28 11:27:53;;;;;;;8.02;3.33;;;;;;;34.03;29.08;98689.09;4420429;32;20460;-71
2022/07/28 11:30:35;;;;;;;5.85;3.35;;;;;;;34.00;29.02;98682.31;4420423;32;20132;-71
2022/07/28 11:33:04;;;;;;;5.95;3.47;;;;;;;33.45;28.31;98682.75;4418974;32;20403;-71
2022/07/28 11:35:52;;;;;;;6.62;3.87;;;;;;;34.04;28.08;98682.56;4418239;32;20137;-71
2022/07/28 11:38:21;;;;;;;6.62;3.60;;;;;;;34.05;27.39;98684.97;4419341;32;20128;-72
2022/07/28 11:40:52;;;;;;;8.30;3.47;;;;;;;33.75;27.82;98678.88;4420393;32;20204;-72
2022/07/28 11:43:20;;;;;;;5.43;4.00;;;;;;;34.03;27.96;98676.28;4420767;32;20546;-73
2022/07/28 11:46:09;;;;;;;8.02;3.72;;;;;;;33.82;27.38;98675.78;4420087;32;20654;-72
2022/07/28 11:48:40;;;;;;;4.95;3.40;;;;;;;33.53;28.35;98686.72;4420413;32;20487;-72
2022/07/28 11:51:11;;;;;;;6.03;3.58;;;;;;;33.66;28.83;98677.88;4420627;32;20078;-72
2022/07/28 11:53:47;;;;;;;9.57;4.05;;;;;;;33.63;28.43;98683.06;4420195;32;20118;-72
2022/07/28 11:56:22;;;;;;;12.20;3.40;;;;;;;34.00;27.65;98673.38;4420024;32;20114;-72